createdAt,value
2022-08-24T00:00:53.660Z,16.55
2022-08-24T00:01:53.496Z,16.53
2022-08-24T00:02:53.470Z,16.52
2022-08-24T00:03:55.528Z,16.50
2022-08-24T00:04:53.377Z,16.50
2022-08-24T00:05:53.757Z,16.50
2022-08-24T00:06:53.321Z,16.48
2022-08-24T00:07:53.382Z,16.48
2022-08-24T00:08:53.317Z,16.49
2022-08-24T00:09:53.699Z,16.49
2022-08-24T00:10:53.346Z,16.48
2022-08-24T00:11:53.333Z,16.49
2022-08-24T00:12:54.124Z,16.50
2022-08-24T00:13:53.224Z,16.55
2022-08-24T00:14:53.386Z,16.56
2022-08-24T00:15:53.675Z,16.58
2022-08-24T00:16:53.721Z,16.60
2022-08-24T00:17:53.717Z,16.63
2022-08-24T00:18:53.178Z,16.67
2022-08-24T00:19:53.646Z,16.73
2022-08-24T00:20:53.137Z,16.83
2022-08-24T00:21:53.689Z,16.86
2022-08-24T00:22:53.137Z,16.93
2022-08-24T00:23:53.097Z,16.98
2022-08-24T00:24:53.154Z,17.03
2022-08-24T00:25:53.058Z,17.08
2022-08-24T00:26:53.052Z,17.15
2022-08-24T00:27:53.225Z,17.22
2022-08-24T00:28:53.037Z,17.28
2022-08-24T00:29:53.018Z,17.30
2022-08-24T00:30:53.019Z,17.33
2022-08-24T00:31:53.013Z,17.36
2022-08-24T00:32:52.987Z,17.38
2022-08-24T00:33:52.960Z,17.38
2022-08-24T00:34:58.712Z,17.41
2022-08-24T00:35:53.958Z,17.40
2022-08-24T00:36:52.901Z,17.40
2022-08-24T00:37:52.890Z,17.38
2022-08-24T00:38:52.933Z,17.40
2022-08-24T00:39:52.907Z,17.41
2022-08-24T00:40:52.863Z,17.40
2022-08-24T00:41:52.841Z,17.40
2022-08-24T00:42:52.823Z,17.40
2022-08-24T00:43:52.863Z,17.41
2022-08-24T00:44:52.823Z,17.41
2022-08-24T00:45:52.862Z,17.44
2022-08-24T00:46:52.804Z,17.46
2022-08-24T00:47:52.750Z,17.50
2022-08-24T00:48:52.774Z,17.48
2022-08-24T00:49:52.729Z,17.50
2022-08-24T00:50:52.764Z,17.50
2022-08-24T00:51:52.733Z,17.51
2022-08-24T00:52:52.744Z,17.51
2022-08-24T00:53:52.678Z,17.51
2022-08-24T00:54:52.924Z,17.51
2022-08-24T00:55:54.701Z,17.48
2022-08-24T00:56:52.657Z,17.48
2022-08-24T00:57:52.617Z,17.47
2022-08-24T00:58:56.088Z,17.46
2022-08-24T00:59:52.566Z,17.46
2022-08-24T01:00:52.723Z,17.43
2022-08-24T01:01:53.559Z,17.43
2022-08-24T01:02:53.417Z,17.44
2022-08-24T01:03:56.853Z,17.44
2022-08-24T01:04:53.481Z,17.44
2022-08-24T01:05:52.483Z,17.43
2022-08-24T01:06:53.289Z,17.40
2022-08-24T01:07:52.506Z,17.36
2022-08-24T01:08:56.798Z,17.36
2022-08-24T01:09:52.453Z,17.33
2022-08-24T01:10:52.541Z,17.32
2022-08-24T01:11:52.390Z,17.30
2022-08-24T01:13:00.087Z,17.29
2022-08-24T01:13:53.502Z,17.28
2022-08-24T01:14:53.281Z,17.25
2022-08-24T01:15:52.431Z,17.23
2022-08-24T01:16:52.395Z,17.20
2022-08-24T01:17:52.493Z,17.17
2022-08-24T01:18:53.163Z,17.14
2022-08-24T01:19:52.262Z,17.13
2022-08-24T01:20:53.227Z,17.13
2022-08-24T01:21:52.273Z,17.10
2022-08-24T01:22:53.033Z,17.07
2022-08-24T01:23:52.236Z,17.06
2022-08-24T01:24:52.215Z,17.04
2022-08-24T01:25:52.194Z,17.03
2022-08-24T01:26:53.169Z,17.03
2022-08-24T01:27:52.163Z,17.03
2022-08-24T01:28:52.174Z,17.00
2022-08-24T01:29:52.145Z,17.00
2022-08-24T01:30:52.226Z,17.00
2022-08-24T01:31:52.998Z,17.00
2022-08-24T01:32:52.107Z,16.99
2022-08-24T01:33:52.117Z,16.99
2022-08-24T01:34:52.908Z,16.98
2022-08-24T01:35:54.018Z,16.96
2022-08-24T01:36:52.589Z,16.93
2022-08-24T01:37:52.038Z,16.90
2022-08-24T01:38:52.642Z,16.90
2022-08-24T01:39:52.978Z,16.89
2022-08-24T01:40:51.998Z,16.89
2022-08-24T01:41:52.118Z,16.88
2022-08-24T01:42:51.978Z,16.86
2022-08-24T01:43:52.814Z,16.88
2022-08-24T01:44:51.958Z,16.86
2022-08-24T01:45:52.380Z,16.85
2022-08-24T01:46:52.798Z,16.86
2022-08-24T01:47:51.880Z,16.83
2022-08-24T01:48:51.885Z,16.80
2022-08-24T01:49:52.559Z,16.74
2022-08-24T01:50:51.932Z,16.73
2022-08-24T01:51:51.884Z,16.70
2022-08-24T01:53:04.790Z,16.65
2022-08-24T01:53:53.642Z,16.65
2022-08-24T01:54:52.781Z,16.65
2022-08-24T01:55:51.817Z,16.67
2022-08-24T01:56:51.773Z,16.68
2022-08-24T01:57:51.762Z,16.68
2022-08-24T01:58:52.653Z,16.71
2022-08-24T01:59:51.744Z,16.73
2022-08-24T02:00:51.723Z,16.74
2022-08-24T02:01:52.721Z,16.75
2022-08-24T02:02:51.853Z,16.80
2022-08-24T02:03:52.115Z,16.80
2022-08-24T02:04:51.693Z,16.78
2022-08-24T02:05:51.666Z,16.77
2022-08-24T02:06:51.636Z,16.74
2022-08-24T02:07:51.615Z,16.73
2022-08-24T02:08:52.457Z,16.68
2022-08-24T02:09:52.364Z,16.62
2022-08-24T02:10:56.350Z,16.58
2022-08-24T02:11:52.557Z,16.52
2022-08-24T02:12:51.578Z,16.45
2022-08-24T02:13:51.535Z,16.40
2022-08-24T02:14:51.496Z,16.37
2022-08-24T02:15:52.359Z,16.33
2022-08-24T02:16:52.458Z,16.31
2022-08-24T02:17:51.448Z,16.31
2022-08-24T02:18:51.454Z,16.27
2022-08-24T02:19:52.421Z,16.30
2022-08-24T02:20:52.331Z,16.31
2022-08-24T02:21:51.422Z,16.27
2022-08-24T02:22:51.591Z,16.27
2022-08-24T02:23:51.399Z,16.26
2022-08-24T02:24:51.429Z,16.25
2022-08-24T02:25:52.102Z,16.25
2022-08-24T02:26:51.551Z,16.25
2022-08-24T02:27:51.361Z,16.22
2022-08-24T02:28:51.326Z,16.20
2022-08-24T02:29:51.370Z,16.16
2022-08-24T02:30:51.405Z,16.14
2022-08-24T02:31:51.295Z,16.09
2022-08-24T02:32:51.305Z,16.06
2022-08-24T02:33:51.253Z,15.97
2022-08-24T02:34:52.891Z,15.94
2022-08-24T02:35:51.219Z,15.88
2022-08-24T02:36:51.202Z,15.85
2022-08-24T02:37:51.604Z,15.84
2022-08-24T02:38:51.225Z,15.81
2022-08-24T02:39:51.279Z,15.78
2022-08-24T02:40:51.146Z,15.76
2022-08-24T02:41:52.105Z,15.70
2022-08-24T02:42:52.005Z,15.66
2022-08-24T02:43:51.914Z,15.61
2022-08-24T02:44:51.145Z,15.60
2022-08-24T02:45:51.099Z,15.56
2022-08-24T02:46:51.877Z,15.57
2022-08-24T02:47:51.068Z,15.54
2022-08-24T02:48:58.112Z,15.52
2022-08-24T02:49:52.662Z,15.51
2022-08-24T02:50:51.605Z,15.51
2022-08-24T02:51:51.067Z,15.51
2022-08-24T02:52:51.027Z,15.49
2022-08-24T02:53:51.002Z,15.49
2022-08-24T02:54:50.979Z,15.49
2022-08-24T02:55:50.949Z,15.46
2022-08-24T02:56:50.969Z,15.45
2022-08-24T02:57:51.384Z,15.43
2022-08-24T02:58:53.182Z,15.42
2022-08-24T02:59:50.941Z,15.41
2022-08-24T03:00:50.984Z,15.41
2022-08-24T03:01:50.952Z,15.39
2022-08-24T03:02:51.766Z,15.39
2022-08-24T03:03:50.851Z,15.38
2022-08-24T03:04:50.870Z,15.35
2022-08-24T03:05:51.596Z,15.35
2022-08-24T03:06:51.753Z,15.30
2022-08-24T03:07:52.341Z,15.27
2022-08-24T03:08:54.656Z,15.23
2022-08-24T03:09:52.742Z,15.19
2022-08-24T03:10:51.656Z,15.17
2022-08-24T03:11:51.564Z,15.15
2022-08-24T03:12:50.771Z,15.12
2022-08-24T03:13:51.593Z,15.12
2022-08-24T03:14:50.705Z,15.13
2022-08-24T03:15:50.791Z,15.17
2022-08-24T03:16:50.685Z,15.15
2022-08-24T03:17:51.465Z,15.15
2022-08-24T03:18:50.697Z,15.13
2022-08-24T03:19:51.525Z,15.12
2022-08-24T03:20:50.614Z,15.12
2022-08-24T03:21:50.595Z,15.12
2022-08-24T03:22:51.497Z,15.13
2022-08-24T03:23:51.401Z,15.11
2022-08-24T03:24:51.316Z,15.09
2022-08-24T03:25:51.513Z,15.09
2022-08-24T03:26:50.525Z,15.08
2022-08-24T03:27:50.566Z,15.08
2022-08-24T03:28:51.430Z,15.06
2022-08-24T03:29:51.356Z,15.03
2022-08-24T03:30:51.288Z,14.99
2022-08-24T03:31:51.399Z,14.99
2022-08-24T03:32:51.298Z,14.95
2022-08-24T03:33:50.476Z,14.95
2022-08-24T03:34:51.379Z,14.94
2022-08-24T03:35:50.740Z,14.93
2022-08-24T03:36:50.412Z,14.91
2022-08-24T03:37:50.572Z,14.87
2022-08-24T03:38:50.429Z,14.83
2022-08-24T03:39:50.437Z,14.81
2022-08-24T03:40:50.456Z,14.74
2022-08-24T03:41:50.751Z,14.72
2022-08-24T03:42:50.480Z,14.69
2022-08-24T03:43:50.291Z,14.68
2022-08-24T03:44:50.443Z,14.67
2022-08-24T03:45:50.348Z,14.65
2022-08-24T03:46:50.982Z,14.65
2022-08-24T03:47:50.309Z,14.64
2022-08-24T03:48:51.045Z,14.64
2022-08-24T03:49:50.796Z,14.62
2022-08-24T03:50:50.214Z,14.61
2022-08-24T03:51:51.019Z,14.60
2022-08-24T03:52:50.920Z,14.57
2022-08-24T03:53:51.085Z,14.57
2022-08-24T03:54:50.983Z,14.56
2022-08-24T03:55:50.884Z,14.54
2022-08-24T03:56:51.044Z,14.53
2022-08-24T03:57:50.066Z,14.53
2022-08-24T03:58:50.104Z,14.50
2022-08-24T03:59:50.135Z,14.49
2022-08-24T04:00:50.157Z,14.46
2022-08-24T04:01:50.836Z,14.42
2022-08-24T04:02:50.154Z,14.38
2022-08-24T04:03:50.045Z,14.35
2022-08-24T04:04:50.056Z,14.35
2022-08-24T04:05:50.018Z,14.31
2022-08-24T04:06:49.957Z,14.29
2022-08-24T04:07:49.948Z,14.29
2022-08-24T04:08:50.931Z,14.32
2022-08-24T04:09:50.827Z,14.32
2022-08-24T04:10:51.991Z,14.34
2022-08-24T04:11:52.047Z,14.35
2022-08-24T04:12:49.902Z,14.37
2022-08-24T04:13:50.697Z,14.39
2022-08-24T04:14:50.674Z,14.42
2022-08-24T04:15:50.762Z,14.44
2022-08-24T04:16:52.771Z,14.46
2022-08-24T04:17:50.849Z,14.46
2022-08-24T04:18:49.781Z,14.49
2022-08-24T04:19:50.029Z,14.50
2022-08-24T04:20:49.924Z,14.52
2022-08-24T04:21:50.701Z,14.53
2022-08-24T04:22:50.602Z,14.56
2022-08-24T04:23:50.502Z,14.60
2022-08-24T04:24:50.672Z,14.61
2022-08-24T04:25:50.571Z,14.65
2022-08-24T04:26:50.473Z,14.67
2022-08-24T04:27:49.962Z,14.68
2022-08-24T04:28:50.537Z,14.71
2022-08-24T04:29:49.653Z,14.75
2022-08-24T04:30:50.606Z,14.81
2022-08-24T04:31:50.555Z,14.83
2022-08-24T04:32:49.592Z,14.87
2022-08-24T04:33:54.021Z,14.87
2022-08-24T04:34:49.588Z,14.91
2022-08-24T04:35:49.531Z,14.94
2022-08-24T04:36:49.537Z,14.94
2022-08-24T04:37:49.556Z,14.99
2022-08-24T04:38:50.345Z,14.99
2022-08-24T04:39:50.566Z,15.01
2022-08-24T04:40:50.404Z,15.02
2022-08-24T04:41:50.502Z,15.05
2022-08-24T04:42:49.446Z,15.05
2022-08-24T04:43:50.379Z,15.06
2022-08-24T04:44:49.627Z,15.06
2022-08-24T04:45:49.434Z,15.11
2022-08-24T04:46:50.346Z,15.12
2022-08-24T04:47:50.253Z,15.13
2022-08-24T04:48:49.705Z,15.17
2022-08-24T04:49:50.309Z,15.20
2022-08-24T04:50:49.358Z,15.21
2022-08-24T04:51:49.712Z,15.24
2022-08-24T04:52:49.659Z,15.26
2022-08-24T04:53:50.180Z,15.28
2022-08-24T04:54:49.279Z,15.33
2022-08-24T04:55:50.253Z,15.33
2022-08-24T04:56:49.256Z,15.36
2022-08-24T04:57:49.289Z,15.41
2022-08-24T04:58:49.231Z,15.42
2022-08-24T04:59:50.120Z,15.45
2022-08-24T05:00:49.295Z,15.48
2022-08-24T05:01:49.793Z,15.51
2022-08-24T05:02:49.223Z,15.54
2022-08-24T05:03:49.138Z,15.59
2022-08-24T05:04:49.672Z,15.64
2022-08-24T05:05:49.209Z,15.67
2022-08-24T05:06:53.020Z,15.67
2022-08-24T05:07:56.050Z,15.72
2022-08-24T05:08:50.077Z,15.76
2022-08-24T05:09:49.082Z,15.79
2022-08-24T05:10:49.074Z,15.82
2022-08-24T05:11:50.297Z,15.85
2022-08-24T05:12:49.895Z,15.89
2022-08-24T05:13:50.984Z,15.93
2022-08-24T05:14:49.045Z,15.97
2022-08-24T05:15:49.905Z,16.03
2022-08-24T05:16:52.609Z,16.07
2022-08-24T05:17:50.938Z,16.09
2022-08-24T05:18:49.045Z,16.15
2022-08-24T05:19:49.596Z,16.16
2022-08-24T05:20:48.957Z,16.22
2022-08-24T05:21:48.936Z,16.25
2022-08-24T05:22:52.999Z,16.30
2022-08-24T05:23:49.870Z,16.31
2022-08-24T05:24:49.027Z,16.34
2022-08-24T05:25:48.918Z,16.38
2022-08-24T05:26:48.850Z,16.41
2022-08-24T05:27:49.738Z,16.45
2022-08-24T05:28:49.639Z,16.48
2022-08-24T05:29:48.808Z,16.50
2022-08-24T05:30:51.182Z,16.56
2022-08-24T05:31:49.183Z,16.58
2022-08-24T05:32:48.781Z,16.60
2022-08-24T05:33:49.669Z,16.65
2022-08-24T05:34:48.739Z,16.67
2022-08-24T05:35:49.479Z,16.70
2022-08-24T05:36:49.646Z,16.74
2022-08-24T05:37:49.540Z,16.77
2022-08-24T05:38:48.660Z,16.81
2022-08-24T05:39:48.659Z,16.85
2022-08-24T05:40:48.671Z,16.89
2022-08-24T05:41:48.672Z,16.95
2022-08-24T05:42:48.640Z,17.04
2022-08-24T05:43:48.617Z,17.13
2022-08-24T05:44:49.383Z,17.20
2022-08-24T05:45:48.606Z,17.25
2022-08-24T05:46:48.679Z,17.29
2022-08-24T05:47:50.476Z,17.32
2022-08-24T05:48:52.666Z,17.36
2022-08-24T05:49:49.414Z,17.41
2022-08-24T05:50:48.514Z,17.46
2022-08-24T05:51:48.473Z,17.51
2022-08-24T05:52:49.385Z,17.63
2022-08-24T05:53:48.448Z,17.76
2022-08-24T05:54:49.195Z,17.92
2022-08-24T05:55:48.423Z,18.17
2022-08-24T05:56:48.413Z,18.39
2022-08-24T05:57:49.157Z,18.68
2022-08-24T05:58:49.317Z,19.01
2022-08-24T05:59:48.978Z,19.24
2022-08-24T06:00:48.326Z,19.46
2022-08-24T06:01:49.392Z,19.69
2022-08-24T06:02:48.472Z,19.86
2022-08-24T06:03:48.668Z,20.06
2022-08-24T06:04:48.746Z,20.28
2022-08-24T06:05:48.498Z,20.42
2022-08-24T06:06:48.922Z,20.62
2022-08-24T06:07:49.340Z,20.77
2022-08-24T06:08:49.134Z,20.87
2022-08-24T06:09:49.034Z,21.05
2022-08-24T06:10:48.208Z,21.21
2022-08-24T06:11:49.096Z,21.26
2022-08-24T06:12:49.001Z,21.41
2022-08-24T06:13:48.869Z,21.54
2022-08-24T06:14:49.134Z,21.66
2022-08-24T06:16:11.039Z,21.79
2022-08-24T06:16:49.769Z,21.91
2022-08-24T06:17:49.068Z,22.04
2022-08-24T06:18:48.938Z,22.04
2022-08-24T06:19:48.842Z,22.20
2022-08-24T06:20:48.062Z,22.32
2022-08-24T06:21:48.904Z,22.46
2022-08-24T06:22:48.040Z,22.53
2022-08-24T06:23:48.968Z,22.57
2022-08-24T06:24:48.878Z,22.57
2022-08-24T06:25:48.777Z,22.65
2022-08-24T06:26:49.118Z,22.77
2022-08-24T06:27:49.941Z,22.84
2022-08-24T06:28:47.974Z,23.01
2022-08-24T06:29:48.812Z,23.09
2022-08-24T06:30:48.728Z,23.15
2022-08-24T06:31:49.233Z,23.26
2022-08-24T06:32:49.131Z,23.35
2022-08-24T06:33:48.778Z,23.45
2022-08-24T06:34:48.680Z,23.45
2022-08-24T06:35:48.852Z,23.49
2022-08-24T06:36:48.749Z,23.49
2022-08-24T06:37:48.648Z,23.58
2022-08-24T06:38:49.789Z,23.67
2022-08-24T06:39:47.894Z,23.75
2022-08-24T06:40:48.827Z,23.75
2022-08-24T06:41:48.772Z,23.70
2022-08-24T06:42:48.692Z,23.68
2022-08-24T06:43:48.582Z,23.61
2022-08-24T06:44:48.496Z,23.72
2022-08-24T06:45:48.651Z,23.83
2022-08-24T06:46:48.615Z,23.97
2022-08-24T06:47:48.456Z,24.13
2022-08-24T06:48:48.615Z,24.19
2022-08-24T06:49:48.520Z,24.16
2022-08-24T06:50:48.426Z,24.10
2022-08-24T06:51:50.773Z,24.22
2022-08-24T06:52:47.647Z,24.32
2022-08-24T06:53:48.417Z,24.35
2022-08-24T06:54:47.725Z,24.35
2022-08-24T06:55:49.047Z,24.47
2022-08-24T06:56:47.589Z,24.61
2022-08-24T06:57:52.347Z,24.63
2022-08-24T06:58:48.431Z,24.67
2022-08-24T06:59:47.528Z,24.80
2022-08-24T07:00:48.488Z,24.75
2022-08-24T07:01:49.469Z,24.88
2022-08-24T07:02:48.370Z,24.97
2022-08-24T07:03:47.483Z,25.15
2022-08-24T07:04:47.462Z,25.31
2022-08-24T07:05:47.456Z,25.27
2022-08-24T07:06:48.424Z,25.24
2022-08-24T07:07:48.339Z,25.27
2022-08-24T07:08:48.244Z,25.27
2022-08-24T07:09:48.393Z,25.30
2022-08-24T07:10:48.297Z,25.35
2022-08-24T07:11:48.204Z,25.39
2022-08-24T07:12:49.298Z,25.44
2022-08-24T07:13:48.268Z,25.44
2022-08-24T07:14:48.182Z,25.59
2022-08-24T07:15:47.371Z,25.72
2022-08-24T07:16:47.294Z,25.72
2022-08-24T07:17:47.267Z,25.90
2022-08-24T07:18:50.134Z,25.87
2022-08-24T07:19:47.746Z,25.86
2022-08-24T07:20:47.727Z,25.99
2022-08-24T07:21:48.007Z,26.06
2022-08-24T07:22:47.337Z,26.05
2022-08-24T07:23:47.476Z,26.12
2022-08-24T07:24:47.388Z,26.25
2022-08-24T07:25:50.464Z,26.35
2022-08-24T07:26:47.166Z,26.39
2022-08-24T07:27:47.949Z,26.52
2022-08-24T07:28:49.070Z,26.67
2022-08-24T07:29:56.253Z,26.74
2022-08-24T07:30:48.639Z,26.91
2022-08-24T07:31:47.228Z,27.06
2022-08-24T07:32:47.724Z,27.09
2022-08-24T07:33:47.092Z,27.09
2022-08-24T07:34:49.007Z,27.26
2022-08-24T07:35:47.136Z,27.36
2022-08-24T07:36:47.086Z,27.64
2022-08-24T07:37:48.016Z,27.62
2022-08-24T07:38:47.003Z,27.74
2022-08-24T07:39:47.192Z,27.71
2022-08-24T07:41:09.305Z,27.59
2022-08-24T07:42:11.632Z,27.70
2022-08-24T07:42:47.979Z,27.64
2022-08-24T07:43:47.052Z,27.71
2022-08-24T07:44:47.847Z,27.86
2022-08-24T07:45:47.748Z,27.96
2022-08-24T07:46:47.078Z,28.10
2022-08-24T07:47:54.620Z,28.11
2022-08-24T07:48:56.092Z,28.33
2022-08-24T07:49:48.652Z,28.22
2022-08-24T07:50:48.388Z,27.98
2022-08-24T07:51:47.277Z,27.82
2022-08-24T07:52:46.812Z,27.82
2022-08-24T07:53:54.522Z,27.82
2022-08-24T07:54:47.840Z,27.88
2022-08-24T07:55:46.771Z,27.94
2022-08-24T07:56:46.883Z,27.96
2022-08-24T07:57:47.661Z,28.10
2022-08-24T07:58:47.536Z,28.40
2022-08-24T07:59:47.689Z,28.58
2022-08-24T08:00:46.744Z,28.70
2022-08-24T08:01:47.765Z,28.91
2022-08-24T08:02:47.770Z,29.04
2022-08-24T08:03:46.755Z,29.15
2022-08-24T08:04:46.658Z,29.08
2022-08-24T08:05:46.628Z,29.06
2022-08-24T08:06:47.541Z,28.96
2022-08-24T08:07:51.629Z,28.90
2022-08-24T08:08:46.599Z,28.84
2022-08-24T08:09:47.501Z,28.78
2022-08-24T08:10:46.621Z,28.87
2022-08-24T08:11:51.490Z,29.07
2022-08-24T08:12:46.691Z,29.11
2022-08-24T08:13:46.617Z,29.26
2022-08-24T08:14:46.520Z,29.40
2022-08-24T08:15:46.592Z,29.29
2022-08-24T08:16:47.105Z,29.38
2022-08-24T08:17:46.594Z,29.37
2022-08-24T08:18:52.393Z,29.25
2022-08-24T08:19:47.803Z,29.22
2022-08-24T08:20:46.423Z,29.22
2022-08-24T08:21:46.437Z,29.37
2022-08-24T08:22:46.816Z,29.28
2022-08-24T08:23:48.272Z,29.33
2022-08-24T08:24:46.419Z,29.28
2022-08-24T08:25:47.476Z,29.23
2022-08-24T08:26:46.626Z,29.31
2022-08-24T08:27:46.369Z,29.45
2022-08-24T08:28:46.328Z,29.47
2022-08-24T08:29:46.327Z,29.62
2022-08-24T08:30:46.353Z,29.50
2022-08-24T08:31:47.180Z,29.62
2022-08-24T08:32:46.429Z,29.77
2022-08-24T08:33:47.239Z,29.89
2022-08-24T08:34:47.140Z,29.92
2022-08-24T08:35:47.051Z,29.87
2022-08-24T08:36:47.680Z,29.78
2022-08-24T08:37:46.220Z,29.66
2022-08-24T08:38:46.182Z,29.53
2022-08-24T08:39:46.361Z,29.52
2022-08-24T08:40:46.214Z,29.49
2022-08-24T08:41:46.183Z,29.65
2022-08-24T08:42:46.241Z,29.81
2022-08-24T08:43:46.225Z,29.89
2022-08-24T08:44:46.194Z,30.07
2022-08-24T08:45:46.257Z,30.27
2022-08-24T08:46:46.097Z,30.61
2022-08-24T08:47:46.917Z,30.74
2022-08-24T08:48:46.825Z,30.94
2022-08-24T08:49:46.127Z,30.99
2022-08-24T08:50:46.056Z,31.08
2022-08-24T08:51:46.166Z,31.27
2022-08-24T08:52:47.015Z,31.35
2022-08-24T08:53:45.989Z,31.24
2022-08-24T08:54:46.010Z,31.36
2022-08-24T08:55:45.971Z,31.49
2022-08-24T08:56:45.969Z,31.75
2022-08-24T08:57:46.729Z,31.79
2022-08-24T08:58:46.782Z,31.88
2022-08-24T08:59:47.265Z,31.87
2022-08-24T09:00:46.694Z,31.76
2022-08-24T09:01:46.894Z,31.77
2022-08-24T09:02:45.918Z,31.72
2022-08-24T09:03:45.877Z,31.85
2022-08-24T09:04:45.940Z,31.95
2022-08-24T09:05:45.832Z,31.93
2022-08-24T09:06:45.844Z,32.05
2022-08-24T09:07:46.794Z,31.96
2022-08-24T09:08:52.217Z,31.70
2022-08-24T09:09:46.827Z,31.61
2022-08-24T09:10:46.782Z,31.64
2022-08-24T09:11:47.707Z,31.50
2022-08-24T09:12:45.747Z,31.58
2022-08-24T09:13:46.745Z,31.75
2022-08-24T09:14:46.647Z,31.85
2022-08-24T09:15:46.542Z,31.93
2022-08-24T09:16:45.749Z,32.06
2022-08-24T09:17:45.659Z,32.21
2022-08-24T09:18:46.501Z,32.20
2022-08-24T09:19:46.410Z,32.30
2022-08-24T09:20:46.575Z,32.47
2022-08-24T09:21:45.625Z,32.49
2022-08-24T09:22:46.371Z,32.59
2022-08-24T09:23:46.548Z,32.77
2022-08-24T09:24:45.582Z,32.85
2022-08-24T09:25:46.346Z,33.04
2022-08-24T09:26:45.574Z,33.17
2022-08-24T09:27:46.405Z,33.23
2022-08-24T09:28:46.747Z,32.91
2022-08-24T09:29:45.845Z,32.79
2022-08-24T09:30:45.613Z,32.57
2022-08-24T09:31:46.006Z,32.54
2022-08-24T09:32:46.470Z,32.39
2022-08-24T09:33:46.345Z,32.43
2022-08-24T09:34:47.450Z,32.67
2022-08-24T09:35:46.410Z,32.74
2022-08-24T09:36:45.451Z,32.79
2022-08-24T09:37:46.220Z,32.70
2022-08-24T09:38:46.380Z,33.04
2022-08-24T09:39:45.409Z,33.13
2022-08-24T09:40:47.378Z,32.96
2022-08-24T09:41:45.369Z,32.98
2022-08-24T09:42:46.249Z,33.08
2022-08-24T09:43:45.341Z,33.03
2022-08-24T09:44:46.316Z,33.11
2022-08-24T09:45:45.354Z,33.19
2022-08-24T09:46:45.313Z,33.41
2022-08-24T09:47:45.633Z,33.67
2022-08-24T09:48:46.182Z,33.70
2022-08-24T09:49:45.268Z,33.98
2022-08-24T09:50:46.244Z,34.31
2022-08-24T09:51:45.255Z,34.26
2022-08-24T09:52:46.055Z,34.17
2022-08-24T09:53:46.218Z,34.13
2022-08-24T09:54:45.849Z,34.08
2022-08-24T09:55:45.814Z,33.98
2022-08-24T09:56:45.894Z,34.04
2022-08-24T09:58:00.027Z,34.13
2022-08-24T09:58:46.156Z,33.89
2022-08-24T09:59:45.179Z,33.52
2022-08-24T10:00:45.159Z,33.27
2022-08-24T10:01:45.156Z,33.42
2022-08-24T10:02:45.453Z,33.29
2022-08-24T10:03:45.122Z,33.34
2022-08-24T10:04:45.263Z,33.41
2022-08-24T10:05:45.145Z,33.30
2022-08-24T10:06:45.096Z,33.14
2022-08-24T10:07:45.069Z,33.23
2022-08-24T10:08:45.154Z,33.46
2022-08-24T10:09:45.042Z,33.67
2022-08-24T10:10:45.049Z,33.67
2022-08-24T10:11:45.811Z,33.67
2022-08-24T10:12:45.020Z,33.63
2022-08-24T10:13:45.031Z,33.73
2022-08-24T10:14:46.957Z,33.83
2022-08-24T10:15:44.995Z,33.92
2022-08-24T10:16:46.022Z,33.68
2022-08-24T10:17:45.704Z,33.51
2022-08-24T10:18:44.915Z,33.31
2022-08-24T10:19:44.940Z,33.23
2022-08-24T10:20:46.808Z,33.14
2022-08-24T10:21:45.889Z,33.13
2022-08-24T10:22:45.737Z,33.15
2022-08-24T10:23:44.841Z,33.27
2022-08-24T10:24:44.840Z,33.34
2022-08-24T10:25:45.705Z,33.29
2022-08-24T10:26:45.609Z,33.46
2022-08-24T10:27:44.846Z,33.79
2022-08-24T10:28:45.675Z,33.71
2022-08-24T10:29:45.579Z,33.74
2022-08-24T10:30:45.762Z,33.74
2022-08-24T10:31:45.674Z,33.85
2022-08-24T10:32:45.543Z,33.98
2022-08-24T10:33:44.832Z,34.05
2022-08-24T10:34:44.714Z,34.16
2022-08-24T10:35:44.674Z,34.48
2022-08-24T10:36:45.674Z,34.80
2022-08-24T10:37:44.657Z,34.91
2022-08-24T10:38:45.479Z,34.94
2022-08-24T10:39:44.687Z,34.96
2022-08-24T10:40:45.629Z,34.99
2022-08-24T10:41:45.449Z,35.11
2022-08-24T10:42:44.644Z,35.28
2022-08-24T10:43:44.621Z,35.39
2022-08-24T10:44:44.742Z,35.20
2022-08-24T10:45:48.114Z,35.10
2022-08-24T10:46:45.016Z,35.08
2022-08-24T10:47:45.390Z,35.20
2022-08-24T10:48:44.676Z,35.23
2022-08-24T10:49:44.510Z,35.15
2022-08-24T10:50:45.355Z,35.17
2022-08-24T10:51:44.513Z,35.15
2022-08-24T10:52:44.491Z,35.06
2022-08-24T10:53:44.508Z,35.10
2022-08-24T10:54:45.223Z,35.14
2022-08-24T10:55:44.425Z,35.13
2022-08-24T10:56:44.416Z,35.21
2022-08-24T10:57:45.206Z,35.13
2022-08-24T10:58:44.429Z,35.10
2022-08-24T10:59:45.255Z,35.11
2022-08-24T11:00:44.436Z,34.95
2022-08-24T11:01:45.329Z,35.13
2022-08-24T11:02:44.369Z,35.01
2022-08-24T11:03:44.396Z,35.03
2022-08-24T11:04:44.316Z,34.95
2022-08-24T11:05:45.201Z,34.95
2022-08-24T11:06:44.346Z,35.15
2022-08-24T11:07:45.258Z,35.39
2022-08-24T11:08:45.159Z,35.47
2022-08-24T11:09:44.742Z,35.51
2022-08-24T11:10:45.246Z,35.30
2022-08-24T11:11:44.211Z,35.37
2022-08-24T11:12:44.239Z,35.50
2022-08-24T11:13:44.224Z,35.62
2022-08-24T11:14:45.098Z,35.76
2022-08-24T11:15:45.003Z,35.89
2022-08-24T11:16:44.236Z,36.00
2022-08-24T11:17:45.064Z,36.35
2022-08-24T11:18:44.984Z,36.26
2022-08-24T11:19:44.879Z,36.04
2022-08-24T11:20:44.126Z,36.00
2022-08-24T11:21:44.095Z,36.01
2022-08-24T11:22:46.057Z,36.04
2022-08-24T11:23:44.066Z,36.19
2022-08-24T11:24:44.066Z,36.21
2022-08-24T11:25:44.821Z,36.36
2022-08-24T11:26:44.968Z,36.41
2022-08-24T11:27:44.871Z,36.23
2022-08-24T11:28:44.040Z,36.06
2022-08-24T11:29:44.945Z,36.19
2022-08-24T11:30:43.990Z,36.21
2022-08-24T11:31:44.011Z,36.24
2022-08-24T11:32:44.914Z,36.21
2022-08-24T11:33:45.950Z,36.36
2022-08-24T11:34:43.931Z,36.51
2022-08-24T11:35:43.962Z,36.49
2022-08-24T11:36:43.954Z,36.60
2022-08-24T11:37:43.931Z,36.80
2022-08-24T11:38:45.770Z,36.91
2022-08-24T11:39:43.928Z,36.90
2022-08-24T11:40:44.652Z,37.01
2022-08-24T11:41:44.814Z,37.05
2022-08-24T11:42:43.838Z,36.83
2022-08-24T11:43:43.837Z,36.73
2022-08-24T11:44:44.787Z,36.76
2022-08-24T11:45:43.807Z,36.86
2022-08-24T11:46:44.596Z,37.04
2022-08-24T11:47:43.815Z,37.09
2022-08-24T11:48:44.649Z,36.99
2022-08-24T11:49:43.760Z,37.04
2022-08-24T11:50:44.720Z,37.38
2022-08-24T11:51:44.616Z,37.50
2022-08-24T11:52:44.529Z,37.50
2022-08-24T11:53:44.682Z,37.54
2022-08-24T11:54:43.719Z,37.32
2022-08-24T11:55:46.679Z,37.16
2022-08-24T11:56:43.681Z,37.05
2022-08-24T11:57:44.032Z,37.35
2022-08-24T11:58:43.772Z,37.66
2022-08-24T11:59:43.764Z,37.81
2022-08-24T12:00:43.737Z,37.74
2022-08-24T12:01:44.723Z,37.70
2022-08-24T12:02:43.717Z,37.64
2022-08-24T12:03:43.672Z,37.62
2022-08-24T12:04:43.731Z,37.43
2022-08-24T12:05:43.728Z,37.05
2022-08-24T12:06:43.684Z,36.91
2022-08-24T12:07:43.544Z,36.95
2022-08-24T12:08:45.401Z,37.05
2022-08-24T12:09:43.527Z,37.29
2022-08-24T12:10:43.532Z,37.54
2022-08-24T12:11:43.579Z,37.74
2022-08-24T12:12:43.678Z,37.81
2022-08-24T12:13:43.525Z,37.66
2022-08-24T12:14:44.459Z,37.68
2022-08-24T12:15:43.580Z,37.35
2022-08-24T12:16:43.505Z,37.35
2022-08-24T12:17:43.447Z,37.51
2022-08-24T12:18:43.893Z,37.70
2022-08-24T12:19:43.509Z,37.93
2022-08-24T12:20:44.410Z,37.92
2022-08-24T12:21:43.530Z,37.81
2022-08-24T12:22:43.362Z,37.88
2022-08-24T12:23:43.481Z,37.99
2022-08-24T12:24:43.565Z,37.86
2022-08-24T12:25:43.602Z,38.04
2022-08-24T12:26:43.424Z,37.92
2022-08-24T12:27:43.723Z,37.88
2022-08-24T12:28:43.796Z,38.08
2022-08-24T12:29:43.374Z,38.45
2022-08-24T12:30:43.538Z,38.73
2022-08-24T12:31:43.304Z,38.98
2022-08-24T12:32:44.006Z,38.86
2022-08-24T12:33:43.414Z,38.64
2022-08-24T12:34:43.445Z,38.73
2022-08-24T12:35:43.265Z,38.55
2022-08-24T12:36:43.216Z,38.52
2022-08-24T12:37:43.316Z,38.71
2022-08-24T12:38:43.662Z,38.80
2022-08-24T12:39:43.271Z,38.85
2022-08-24T12:40:43.299Z,38.92
2022-08-24T12:41:43.181Z,38.99
2022-08-24T12:42:45.120Z,38.46
2022-08-24T12:43:43.104Z,37.96
2022-08-24T12:44:43.250Z,38.15
2022-08-24T12:45:43.240Z,38.32
2022-08-24T12:46:43.419Z,38.46
2022-08-24T12:47:43.080Z,38.68
2022-08-24T12:48:43.510Z,39.06
2022-08-24T12:49:43.501Z,39.25
2022-08-24T12:50:45.356Z,39.49
2022-08-24T12:51:43.035Z,39.40
2022-08-24T12:52:43.085Z,39.46